Time;durP1;ratioP1;P1;durP2;ratioP2;P2;SDS_P1;SDS_P2;PMS_P1;PMS_P2;Temp;Humidity;BMP_temperature;BMP_pressure;BME280_temperature;BME280_humidity;BME280_pressure;Samples;Min_cycle;Max_cycle;Signal;HPM_P1;HPM_P2
2022/07/30 00:06:17;;;;;;;0.20;0.10;;;;;;;;;;4807082;29;20932;-84
2022/07/30 00:09:24;;;;;;;0.20;0.10;;;;;;;;;;4797780;29;20137;-85
2022/07/30 00:26:43;;;;;;;;;;;;;;;;;;;;;
2022/07/30 00:40:05;;;;;;;0.20;0.10;;;;;;;;;;4759458;30;20092;-85
2022/07/30 00:46:18;;;;;;;0.20;0.10;;;;;;;;;;4745927;30;20135;-85
2022/07/30 00:49:15;;;;;;;0.20;0.10;;;;;;;;;;4773328;29;20048;-85
2022/07/30 00:55:16;;;;;;;0.20;0.10;;;;;;;;;;4779672;29;20047;-85
2022/07/30 01:01:43;;;;;;;0.20;0.10;;;;;;;;;;4813754;29;20041;-85
2022/07/30 01:11:46;;;;;;;0.20;0.10;;;;;;;;;;4746922;29;20048;-85
2022/07/30 01:35:06;;;;;;;0.20;0.10;;;;;;;;;;4786290;29;20047;-85
2022/07/30 01:38:03;;;;;;;0.20;0.10;;;;;;;;;;4732816;30;20122;-85
2022/07/30 01:44:20;;;;;;;0.20;0.10;;;;;;;;;;4766414;29;20042;-85
2022/07/30 01:50:53;;;;;;;;;;;;;;;;;;;;;
2022/07/30 01:57:09;;;;;;;0.20;0.10;;;;;;;;;;4753490;29;20657;-85
2022/07/30 02:03:09;;;;;;;0.20;0.10;;;;;;;;;;4864991;23;20253;-86
2022/07/30 02:05:35;;;;;;;0.20;0.10;;;;;;;;;;4807471;29;20071;-86
2022/07/30 02:08:05;;;;;;;0.20;0.10;;;;;;;;;;4820877;29;20041;-87
2022/07/30 02:10:34;;;;;;;0.20;0.10;;;;;;;;;;4813247;29;20118;-86
2022/07/30 02:13:02;;;;;;;0.20;0.10;;;;;;;;;;4813578;29;20405;-88
2022/07/30 02:15:31;;;;;;;0.20;0.10;;;;;;;;;;4811708;29;20053;-86
2022/07/30 02:17:57;;;;;;;0.20;0.10;;;;;;;;;;4825068;29;20050;-85
2022/07/30 02:20:24;;;;;;;0.20;0.10;;;;;;;;;;4810144;29;20057;-86
2022/07/30 02:22:50;;;;;;;0.20;0.10;;;;;;;;;;4810003;29;20142;-86
2022/07/30 02:25:18;;;;;;;0.20;0.10;;;;;;;;;;4785673;29;20078;-87
2022/07/30 02:27:45;;;;;;;0.20;0.10;;;;;;;;;;4802708;29;20098;-86
2022/07/30 02:30:11;;;;;;;0.20;0.10;;;;;;;;;;4813358;29;20094;-85
2022/07/30 02:32:39;;;;;;;0.20;0.10;;;;;;;;;;4829323;29;20050;-85
2022/07/30 02:35:11;;;;;;;0.20;0.10;;;;;;;;;;4810738;29;20106;-85
2022/07/30 02:37:39;;;;;;;0.20;0.10;;;;;;;;;;4827170;29;20076;-86
2022/07/30 02:40:05;;;;;;;0.20;0.10;;;;;;;;;;4814626;29;20138;-86
2022/07/30 02:42:31;;;;;;;0.30;0.10;;;;;;;;;;4799644;29;20069;-85
2022/07/30 02:44:58;;;;;;;0.20;0.10;;;;;;;;;;4783682;29;20083;-86
2022/07/30 02:47:26;;;;;;;0.20;0.10;;;;;;;;;;4810320;29;20723;-86
2022/07/30 02:49:53;;;;;;;0.20;0.08;;;;;;;;;;4808045;29;22227;-84
2022/07/30 02:52:20;;;;;;;0.20;0.10;;;;;;;;;;4783150;29;20069;-85
2022/07/30 02:54:47;;;;;;;0.20;0.10;;;;;;;;;;4810782;29;20047;-85
2022/07/30 02:57:14;;;;;;;0.20;0.10;;;;;;;;;;4812791;29;20070;-86
2022/07/30 02:59:40;;;;;;;0.20;0.10;;;;;;;;;;4801793;29;20108;-86
2022/07/30 03:02:08;;;;;;;0.73;0.57;;;;;;;;;;4813257;29;20108;-87
2022/07/30 03:04:35;;;;;;;0.20;0.00;;;;;;;;;;4819271;29;20200;-87
2022/07/30 03:07:01;;;;;;;0.43;0.43;;;;;;;;;;4818634;29;20082;-86
2022/07/30 03:09:28;;;;;;;0.75;0.75;;;;;;;;;;4790931;29;20042;-87
2022/07/30 03:11:54;;;;;;;0.20;0.10;;;;;;;;;;4799711;29;20086;-86
2022/07/30 03:14:20;;;;;;;0.20;0.10;;;;;;;;;;4812531;29;20046;-86
2022/07/30 03:16:51;;;;;;;0.20;0.10;;;;;;;;;;4797095;29;20497;-85
2022/07/30 03:19:19;;;;;;;0.20;0.10;;;;;;;;;;4811852;29;20413;-85
2022/07/30 03:21:46;;;;;;;0.20;0.10;;;;;;;;;;4811973;29;20065;-87
2022/07/30 03:24:13;;;;;;;0.20;0.10;;;;;;;;;;4779717;29;20038;-86
2022/07/30 03:26:39;;;;;;;0.20;0.10;;;;;;;;;;4811245;29;20064;-88
2022/07/30 03:29:07;;;;;;;0.20;0.10;;;;;;;;;;4805729;29;20877;-88
2022/07/30 03:31:33;;;;;;;0.20;0.10;;;;;;;;;;4805230;29;20038;-87
2022/07/30 03:34:00;;;;;;;4.15;0.38;;;;;;;;;;4797026;29;20049;-87
2022/07/30 03:36:26;;;;;;;0.20;0.10;;;;;;;;;;4812073;29;20037;-86
2022/07/30 03:38:53;;;;;;;0.20;0.10;;;;;;;;;;4789197;29;20042;-87
2022/07/30 03:41:19;;;;;;;0.20;0.10;;;;;;;;;;4808712;29;20060;-86
2022/07/30 03:43:46;;;;;;;0.20;0.10;;;;;;;;;;4804037;29;20511;-86
2022/07/30 03:46:13;;;;;;;0.20;0.10;;;;;;;;;;4816754;29;20055;-86
2022/07/30 03:48:42;;;;;;;0.20;0.10;;;;;;;;;;4789304;29;20042;-86
2022/07/30 03:51:09;;;;;;;0.20;0.10;;;;;;;;;;4815909;29;20543;-85
2022/07/30 03:53:35;;;;;;;0.20;0.10;;;;;;;;;;4826478;29;20049;-85
2022/07/30 03:56:01;;;;;;;0.20;0.10;;;;;;;;;;4805908;29;20405;-86
2022/07/30 03:58:28;;;;;;;0.20;0.10;;;;;;;;;;4817172;29;20137;-87
2022/07/30 04:00:54;;;;;;;0.20;0.10;;;;;;;;;;4792166;29;20062;-86
2022/07/30 04:03:27;;;;;;;0.20;0.10;;;;;;;;;;4812302;29;20100;-87
2022/07/30 04:05:53;;;;;;;0.20;0.10;;;;;;;;;;4808964;29;20061;-86
2022/07/30 04:08:19;;;;;;;0.20;0.10;;;;;;;;;;4793105;29;20102;-85
2022/07/30 04:10:45;;;;;;;0.20;0.10;;;;;;;;;;4786663;29;20657;-87
2022/07/30 04:13:11;;;;;;;0.20;0.10;;;;;;;;;;4800216;29;20042;-87
2022/07/30 04:15:43;;;;;;;0.20;0.10;;;;;;;;;;4803675;29;20056;-86
2022/07/30 04:18:10;;;;;;;0.20;0.10;;;;;;;;;;4802378;29;20356;-87
2022/07/30 04:20:38;;;;;;;0.20;0.10;;;;;;;;;;4826265;29;20046;-85
2022/07/30 04:23:04;;;;;;;0.20;0.10;;;;;;;;;;4815454;29;20493;-86
2022/07/30 04:25:31;;;;;;;0.20;0.10;;;;;;;;;;4789142;29;20046;-86
2022/07/30 04:27:57;;;;;;;0.20;0.10;;;;;;;;;;4813934;29;20053;-87
2022/07/30 04:30:23;;;;;;;0.20;0.10;;;;;;;;;;4797307;29;20300;-86
2022/07/30 04:32:49;;;;;;;0.20;0.10;;;;;;;;;;4822107;29;20033;-86
2022/07/30 04:35:15;;;;;;;0.20;0.10;;;;;;;;;;4819153;29;20050;-87
2022/07/30 04:37:41;;;;;;;0.20;0.17;;;;;;;;;;4821565;29;20902;-85
2022/07/30 04:40:08;;;;;;;0.20;0.20;;;;;;;;;;4816659;29;20063;-87
2022/07/30 04:42:34;;;;;;;0.20;0.10;;;;;;;;;;4788054;29;20060;-87
2022/07/30 04:45:00;;;;;;;0.40;0.40;;;;;;;;;;4804767;29;20532;-87
2022/07/30 04:47:26;;;;;;;0.20;0.10;;;;;;;;;;4817925;29;20803;-87
2022/07/30 04:49:52;;;;;;;0.20;0.10;;;;;;;;;;4817436;29;20039;-87
2022/07/30 04:52:19;;;;;;;0.20;0.10;;;;;;;;;;4816756;29;20042;-86
2022/07/30 04:54:49;;;;;;;0.20;0.05;;;;;;;;;;4820430;29;20042;-87
2022/07/30 04:57:16;;;;;;;0.20;0.10;;;;;;;;;;4824175;29;20074;-87
2022/07/30 04:59:42;;;;;;;0.20;0.10;;;;;;;;;;4816571;29;20043;-87
2022/07/30 05:02:08;;;;;;;0.20;0.10;;;;;;;;;;4818374;29;20085;-87
2022/07/30 05:04:35;;;;;;;0.20;0.10;;;;;;;;;;4812597;29;20110;-87
2022/07/30 05:07:02;;;;;;;0.20;0.10;;;;;;;;;;4818801;29;21364;-86
2022/07/30 05:09:29;;;;;;;0.20;0.10;;;;;;;;;;4793665;29;20563;-85
2022/07/30 05:11:56;;;;;;;0.20;0.10;;;;;;;;;;4788213;29;20054;-87
2022/07/30 05:14:24;;;;;;;0.20;0.10;;;;;;;;;;4806006;29;20114;-86
2022/07/30 05:16:50;;;;;;;0.20;0.10;;;;;;;;;;4823291;29;20049;-87
2022/07/30 05:19:17;;;;;;;0.20;0.10;;;;;;;;;;4829643;29;20486;-88
2022/07/30 05:21:43;;;;;;;0.20;0.10;;;;;;;;;;4813418;29;20963;-87
2022/07/30 05:24:09;;;;;;;0.20;0.08;;;;;;;;;;4812910;29;20046;-86
2022/07/30 05:26:35;;;;;;;0.20;0.10;;;;;;;;;;4786445;29;20081;-86
2022/07/30 05:29:02;;;;;;;0.20;0.10;;;;;;;;;;4808319;29;20048;-87
2022/07/30 05:31:28;;;;;;;0.20;0.10;;;;;;;;;;4809333;29;20045;-87
2022/07/30 05:33:54;;;;;;;5.50;0.32;;;;;;;;;;4802518;29;20042;-85
2022/07/30 05:36:20;;;;;;;0.20;0.10;;;;;;;;;;4796091;29;20053;-86
2022/07/30 05:38:47;;;;;;;0.20;0.10;;;;;;;;;;4813200;29;20057;-86
2022/07/30 05:41:13;;;;;;;0.20;0.10;;;;;;;;;;4808227;29;20517;-86
2022/07/30 05:43:39;;;;;;;0.20;0.10;;;;;;;;;;4809829;29;20049;-85
2022/07/30 05:46:05;;;;;;;0.20;0.10;;;;;;;;;;4798705;29;20092;-86
2022/07/30 05:48:34;;;;;;;0.20;0.10;;;;;;;;;;4780660;29;20042;-86
2022/07/30 05:51:00;;;;;;;0.20;0.10;;;;;;;;;;4813570;29;20160;-86
2022/07/30 05:53:27;;;;;;;0.20;0.10;;;;;;;;;;4806126;29;20045;-85
2022/07/30 05:55:53;;;;;;;0.20;0.10;;;;;;;;;;4777398;29;20098;-86
2022/07/30 05:58:22;;;;;;;0.65;0.63;;;;;;;;;;4805719;29;20073;-87
2022/07/30 06:00:48;;;;;;;0.20;0.10;;;;;;;;;;4806633;29;20066;-87
2022/07/30 06:03:14;;;;;;;0.20;0.10;;;;;;;;;;4809534;29;20579;-87
2022/07/30 06:05:41;;;;;;;0.32;0.30;;;;;;;;;;4811481;29;20053;-85
2022/07/30 06:08:07;;;;;;;0.20;0.10;;;;;;;;;;4823486;29;22573;-86
2022/07/30 06:10:34;;;;;;;0.20;0.20;;;;;;;;;;4824698;29;20057;-85
2022/07/30 06:13:00;;;;;;;0.20;0.10;;;;;;;;;;4804516;29;20038;-86
2022/07/30 06:15:26;;;;;;;0.20;0.10;;;;;;;;;;4791991;29;20038;-85
2022/07/30 06:17:52;;;;;;;0.20;0.10;;;;;;;;;;4788537;29;20050;-86
2022/07/30 06:20:19;;;;;;;0.20;0.10;;;;;;;;;;4792494;29;20049;-83
2022/07/30 06:22:45;;;;;;;0.20;0.10;;;;;;;;;;4818565;29;20039;-83
2022/07/30 06:25:11;;;;;;;0.20;0.20;;;;;;;;;;4805497;29;20050;-86
2022/07/30 06:27:38;;;;;;;0.20;0.10;;;;;;;;;;4789836;29;21035;-85
2022/07/30 06:30:05;;;;;;;0.20;0.10;;;;;;;;;;4811756;29;20049;-83
2022/07/30 06:32:31;;;;;;;0.20;0.10;;;;;;;;;;4821368;29;20102;-84
2022/07/30 06:34:58;;;;;;;0.20;0.10;;;;;;;;;;4806922;29;20105;-84
2022/07/30 06:37:24;;;;;;;0.20;0.10;;;;;;;;;;4794216;29;21335;-84
2022/07/30 06:39:50;;;;;;;0.20;0.10;;;;;;;;;;4791161;29;20128;-85
2022/07/30 06:42:16;;;;;;;0.20;0.10;;;;;;;;;;4807107;29;20050;-84
2022/07/30 06:44:42;;;;;;;0.20;0.10;;;;;;;;;;4823032;29;20042;-83
2022/07/30 06:47:11;;;;;;;0.20;0.10;;;;;;;;;;4814620;29;20081;-90
2022/07/30 06:49:49;;;;;;;0.20;0.10;;;;;;;;;;4800885;29;20109;-92
2022/07/30 06:52:15;;;;;;;0.20;0.10;;;;;;;;;;4799954;29;20052;-86
2022/07/30 06:54:41;;;;;;;0.20;0.10;;;;;;;;;;4820238;29;20113;-83
2022/07/30 06:57:07;;;;;;;0.20;0.10;;;;;;;;;;4803459;29;20081;-84
2022/07/30 06:59:33;;;;;;;0.20;0.10;;;;;;;;;;4791773;29;20054;-87
2022/07/30 07:01:59;;;;;;;0.20;0.10;;;;;;;;;;4810038;29;20633;-84
2022/07/30 07:04:26;;;;;;;0.20;0.10;;;;;;;;;;4809224;29;20046;-83
2022/07/30 07:06:52;;;;;;;0.20;0.10;;;;;;;;;;4816743;29;20097;-84
2022/07/30 07:09:21;;;;;;;0.20;0.10;;;;;;;;;;4800694;29;20049;-89
2022/07/30 07:11:50;;;;;;;0.20;0.10;;;;;;;;;;4797798;29;20069;-87
2022/07/30 07:14:16;;;;;;;0.20;0.10;;;;;;;;;;4797544;29;20068;-86
2022/07/30 07:16:42;;;;;;;0.20;0.10;;;;;;;;;;4798580;29;20042;-84
2022/07/30 07:19:08;;;;;;;0.20;0.10;;;;;;;;;;4811787;29;20079;-92
2022/07/30 07:21:45;;;;;;;0.20;0.10;;;;;;;;;;4810153;29;20113;-86
2022/07/30 07:24:11;;;;;;;0.20;0.10;;;;;;;;;;4797442;29;20085;-85
2022/07/30 07:26:40;;;;;;;0.20;0.10;;;;;;;;;;4796984;29;20051;-86
2022/07/30 07:29:06;;;;;;;0.20;0.10;;;;;;;;;;4806778;29;20086;-86
2022/07/30 07:31:32;;;;;;;0.20;0.10;;;;;;;;;;4795805;29;20061;-86
2022/07/30 07:33:59;;;;;;;0.20;0.10;;;;;;;;;;4802175;29;20042;-88
2022/07/30 07:36:25;;;;;;;0.20;0.10;;;;;;;;;;4791751;29;20073;-86
2022/07/30 07:38:51;;;;;;;0.20;0.10;;;;;;;;;;4822074;29;20045;-86
2022/07/30 07:41:17;;;;;;;0.20;0.10;;;;;;;;;;4793266;29;20132;-85
2022/07/30 07:43:43;;;;;;;0.20;0.10;;;;;;;;;;4807082;29;20080;-84
2022/07/30 07:46:09;;;;;;;0.20;0.10;;;;;;;;;;4794865;29;20073;-87
2022/07/30 07:48:35;;;;;;;0.20;0.10;;;;;;;;;;4794094;29;20034;-86
2022/07/30 07:51:01;;;;;;;0.30;0.15;;;;;;;;;;4783186;29;20141;-85
2022/07/30 07:53:27;;;;;;;0.20;0.10;;;;;;;;;;4810411;29;20623;-84
2022/07/30 07:55:53;;;;;;;0.20;0.10;;;;;;;;;;4810325;29;20038;-85
2022/07/30 07:58:19;;;;;;;0.20;0.10;;;;;;;;;;4800896;29;20691;-89
2022/07/30 08:00:48;;;;;;;0.20;0.10;;;;;;;;;;4805664;29;20054;-88
2022/07/30 08:03:14;;;;;;;0.20;0.10;;;;;;;;;;4833118;24;20057;-85
2022/07/30 08:05:40;;;;;;;0.20;0.10;;;;;;;;;;4804744;29;20695;-84
2022/07/30 08:08:08;;;;;;;0.20;0.10;;;;;;;;;;4808587;29;20464;-89
2022/07/30 08:10:34;;;;;;;0.20;0.10;;;;;;;;;;4826071;29;20061;-86
2022/07/30 08:13:07;;;;;;;0.20;0.10;;;;;;;;;;4808872;29;20087;-87
2022/07/30 08:15:47;;;;;;;0.20;0.10;;;;;;;;;;4810657;29;20054;-86
2022/07/30 08:18:13;;;;;;;0.20;0.10;;;;;;;;;;4812267;29;20069;-90
2022/07/30 08:20:40;;;;;;;0.20;0.10;;;;;;;;;;4814705;29;20042;-88
2022/07/30 08:23:07;;;;;;;0.20;0.10;;;;;;;;;;4808959;29;20529;-86
2022/07/30 08:25:33;;;;;;;0.20;0.10;;;;;;;;;;4805710;29;20091;-86
2022/07/30 08:28:01;;;;;;;0.20;0.20;;;;;;;;;;4807262;29;20046;-86
2022/07/30 08:30:37;;;;;;;0.20;0.10;;;;;;;;;;4807906;29;20124;-86
2022/07/30 08:36:21;;;;;;;0.20;0.17;;;;;;;;;;4806974;29;20089;-87
2022/07/30 08:38:50;;;;;;;0.20;0.10;;;;;;;;;;4808844;29;20049;-85
2022/07/30 08:41:19;;;;;;;0.20;0.10;;;;;;;;;;4807706;29;20041;-86
2022/07/30 08:43:47;;;;;;;0.20;0.13;;;;;;;;;;4811548;29;20435;-85
2022/07/30 08:46:17;;;;;;;0.20;0.10;;;;;;;;;;4807359;29;20140;-89
2022/07/30 08:48:46;;;;;;;0.20;0.10;;;;;;;;;;4808321;29;20109;-85
2022/07/30 08:51:18;;;;;;;0.20;0.10;;;;;;;;;;4805445;29;20071;-87
2022/07/30 08:53:49;;;;;;;;;;;;;;;;;;4804926;29;20046;-87
2022/07/30 08:56:21;;;;;;;0.20;0.10;;;;;;;;;;4804691;29;19950;-88
2022/07/30 08:59:18;;;;;;;0.20;0.10;;;;;;;;;;4794119;29;20265;-83
2022/07/30 09:02:05;;;;;;;0.20;0.10;;;;;;;;;;4809257;29;20053;-86
2022/07/30 09:04:33;;;;;;;0.20;0.10;;;;;;;;;;4805922;29;20062;-87
2022/07/30 09:07:01;;;;;;;0.20;0.10;;;;;;;;;;4806068;29;20109;-85
2022/07/30 09:09:29;;;;;;;0.20;0.10;;;;;;;;;;4816785;29;20034;-85
2022/07/30 09:11:59;;;;;;;0.20;0.10;;;;;;;;;;4816233;29;20365;-85
2022/07/30 09:14:28;;;;;;;0.20;0.10;;;;;;;;;;4799026;29;20042;-87
2022/07/30 09:16:57;;;;;;;0.20;0.10;;;;;;;;;;4826868;29;20120;-86
2022/07/30 09:19:28;;;;;;;0.20;0.10;;;;;;;;;;4813044;29;20061;-87
2022/07/30 09:22:17;;;;;;;0.20;0.10;;;;;;;;;;4812255;29;20050;-86
2022/07/30 09:24:44;;;;;;;0.20;0.10;;;;;;;;;;4816527;29;20057;-85
2022/07/30 09:27:15;;;;;;;0.20;0.10;;;;;;;;;;4799521;29;20313;-85
2022/07/30 09:29:48;;;;;;;0.20;0.10;;;;;;;;;;4811632;29;20504;-86
2022/07/30 09:32:35;;;;;;;;;;;;;;;;;;;;;
2022/07/30 09:38:19;;;;;;;0.20;0.10;;;;;;;;;;4824465;29;20424;-86
2022/07/30 09:41:25;;;;;;;0.20;0.10;;;;;;;;;;4808010;29;20041;-85
2022/07/30 09:44:12;;;;;;;0.20;0.10;;;;;;;;;;4822766;29;20057;-86
2022/07/30 09:46:50;;;;;;;0.20;0.10;;;;;;;;;;4818250;29;20054;-83
2022/07/30 09:49:17;;;;;;;0.20;0.10;;;;;;;;;;4816432;29;20497;-83
2022/07/30 09:51:43;;;;;;;0.20;0.10;;;;;;;;;;4819062;29;20049;-83
2022/07/30 09:57:06;;;;;;;0.20;0.10;;;;;;;;;;4791989;29;20046;-83
2022/07/30 10:00:30;;;;;;;0.20;0.10;;;;;;;;;;4761760;29;20437;-84
2022/07/30 10:07:03;;;;;;;0.20;0.10;;;;;;;;;;4647992;30;20065;-85
2022/07/30 10:09:54;;;;;;;;;;;;;;;;;;;;;
2022/07/30 10:15:53;;;;;;;0.20;0.10;;;;;;;;;;4598936;30;20610;-85
2022/07/30 10:21:42;;;;;;;0.20;0.10;;;;;;;;;;4662335;30;20173;-82
2022/07/30 10:25:00;;;;;;;0.20;0.10;;;;;;;;;;4644699;30;20644;-86
2022/07/30 10:27:26;;;;;;;0.20;0.10;;;;;;;;;;4630442;30;20211;-84
2022/07/30 10:30:01;;;;;;;0.20;0.10;;;;;;;;;;4629314;30;20191;-85
2022/07/30 10:32:27;;;;;;;0.20;0.10;;;;;;;;;;4669615;30;20064;-82
2022/07/30 10:34:57;;;;;;;0.20;0.10;;;;;;;;;;4702736;30;20082;-82
2022/07/30 10:37:32;;;;;;;0.20;0.10;;;;;;;;;;4698875;30;20063;-83
2022/07/30 10:40:16;;;;;;;0.20;0.10;;;;;;;;;;4694450;30;20098;-81
2022/07/30 10:42:48;;;;;;;0.20;0.10;;;;;;;;;;4705987;29;20187;-83
2022/07/30 10:45:26;;;;;;;0.20;0.10;;;;;;;;;;4767006;29;20055;-83
2022/07/30 10:47:54;;;;;;;0.20;0.10;;;;;;;;;;4770910;29;20066;-85
2022/07/30 10:50:27;;;;;;;0.20;0.10;;;;;;;;;;4765868;29;20090;-84
2022/07/30 10:53:08;;;;;;;;;;;;;;;;;;;;;
2022/07/30 10:56:12;;;;;;;0.20;0.10;;;;;;;;;;4792121;29;21379;-83
2022/07/30 10:58:58;;;;;;;0.52;0.20;;;;;;;;;;4805098;29;20050;-86
2022/07/30 11:01:24;;;;;;;0.20;0.10;;;;;;;;;;4802910;29;20073;-80
2022/07/30 11:04:29;;;;;;;0.20;0.10;;;;;;;;;;4804811;29;20098;-83
2022/07/30 11:07:13;;;;;;;0.20;0.10;;;;;;;;;;4749318;29;20043;-81
2022/07/30 11:09:42;;;;;;;0.20;0.10;;;;;;;;;;4772319;29;20055;-85
2022/07/30 11:12:09;;;;;;;0.20;0.10;;;;;;;;;;4789746;29;20065;-84
2022/07/30 11:14:47;;;;;;;0.20;0.10;;;;;;;;;;4807598;29;20129;-86
2022/07/30 11:17:15;;;;;;;0.20;0.10;;;;;;;;;;4804843;29;20090;-85
2022/07/30 11:20:00;;;;;;;0.20;0.20;;;;;;;;;;4806196;29;20103;-84
2022/07/30 11:22:30;;;;;;;0.20;0.10;;;;;;;;;;4807907;29;20472;-87
2022/07/30 11:24:57;;;;;;;0.20;0.10;;;;;;;;;;4825094;29;20042;-83
2022/07/30 11:27:28;;;;;;;;;;;;;;;;;;4814753;29;20071;-85
2022/07/30 11:29:54;;;;;;;0.28;0.13;;;;;;;;;;4813428;29;19924;-85
2022/07/30 11:32:50;;;;;;;0.20;0.10;;;;;;;;;;4800189;29;20057;-85
2022/07/30 11:35:25;;;;;;;0.20;0.10;;;;;;;;;;4797256;29;20054;-84
2022/07/30 11:38:19;;;;;;;0.20;0.10;;;;;;;;;;4828969;29;20097;-84
2022/07/30 11:40:55;;;;;;;0.20;0.10;;;;;;;;;;4813633;29;20050;-85
2022/07/30 11:43:27;;;;;;;0.20;0.10;;;;;;;;;;4811238;29;20060;-83
2022/07/30 11:46:13;;;;;;;0.20;0.10;;;;;;;;;;4814284;29;20053;-86
2022/07/30 11:48:40;;;;;;;0.20;0.20;;;;;;;;;;4811827;29;20054;-82
2022/07/30 11:51:07;;;;;;;0.20;0.10;;;;;;;;;;4816409;29;20511;-84
2022/07/30 11:53:36;;;;;;;0.20;0.10;;;;;;;;;;4813231;29;20050;-85
2022/07/30 11:56:09;;;;;;;0.20;0.10;;;;;;;;;;4810468;29;20551;-84
2022/07/30 11:58:36;;;;;;;0.20;0.10;;;;;;;;;;4813461;29;20052;-87
2022/07/30 12:01:04;;;;;;;0.20;0.10;;;;;;;;;;4811714;29;20050;-87
2022/07/30 12:03:33;;;;;;;0.20;0.10;;;;;;;;;;4809184;29;20077;-86
2022/07/30 12:06:37;;;;;;;0.20;0.10;;;;;;;;;;4811629;29;20046;-85
2022/07/30 12:09:31;;;;;;;0.20;0.10;;;;;;;;;;4809782;29;20054;-85
2022/07/30 12:11:58;;;;;;;0.20;0.10;;;;;;;;;;4811439;29;20042;-84
2022/07/30 12:14:56;;;;;;;0.20;0.10;;;;;;;;;;4839599;29;20104;-88
2022/07/30 12:17:42;;;;;;;0.20;0.10;;;;;;;;;;4785046;29;20111;-87
2022/07/30 12:20:22;;;;;;;0.20;0.10;;;;;;;;;;4812044;29;20057;-87
2022/07/30 12:22:54;;;;;;;0.20;0.17;;;;;;;;;;4813925;29;20046;-86
2022/07/30 12:25:47;;;;;;;0.25;0.10;;;;;;;;;;4805237;29;20057;-85
2022/07/30 12:28:20;;;;;;;;;;;;;;;;;;4795486;29;20517;-88
2022/07/30 12:30:53;;;;;;;0.20;0.10;;;;;;;;;;4807394;29;19924;-87
2022/07/30 12:33:28;;;;;;;0.20;0.20;;;;;;;;;;4809444;29;20137;-85
2022/07/30 12:36:05;;;;;;;0.20;0.10;;;;;;;;;;4809844;29;20129;-85
2022/07/30 12:38:56;;;;;;;0.20;0.10;;;;;;;;;;4826694;29;20050;-90
2022/07/30 12:41:42;;;;;;;0.20;0.10;;;;;;;;;;4827719;29;20441;-86
2022/07/30 12:44:16;;;;;;;0.28;0.17;;;;;;;;;;4815499;29;20047;-86
2022/07/30 12:46:43;;;;;;;0.20;0.10;;;;;;;;;;4826531;29;20056;-86
2022/07/30 12:49:15;;;;;;;0.20;0.10;;;;;;;;;;4801589;29;20055;-87
2022/07/30 12:51:49;;;;;;;0.20;0.10;;;;;;;;;;4790082;29;20105;-86
2022/07/30 12:54:26;;;;;;;0.20;0.10;;;;;;;;;;4805486;29;20084;-87
2022/07/30 12:56:56;;;;;;;0.20;0.10;;;;;;;;;;4800095;29;20468;-85
2022/07/30 12:59:25;;;;;;;0.20;0.10;;;;;;;;;;4774800;29;20062;-88
2022/07/30 13:01:56;;;;;;;0.20;0.10;;;;;;;;;;4804809;29;20107;-85
2022/07/30 13:07:57;;;;;;;0.20;0.10;;;;;;;;;;4788895;29;20087;-86
2022/07/30 13:10:23;;;;;;;0.57;0.20;;;;;;;;;;4796615;29;20201;-88
2022/07/30 13:12:49;;;;;;;0.20;0.10;;;;;;;;;;4790684;29;20099;-83
2022/07/30 13:15:22;;;;;;;0.20;0.10;;;;;;;;;;4789209;29;20070;-86
2022/07/30 13:17:48;;;;;;;0.20;0.10;;;;;;;;;;4789444;29;21345;-86
2022/07/30 13:20:19;;;;;;;0.20;0.10;;;;;;;;;;4814219;29;20090;-86
2022/07/30 13:22:45;;;;;;;0.20;0.10;;;;;;;;;;4806653;29;20038;-84
2022/07/30 13:25:14;;;;;;;0.20;0.10;;;;;;;;;;4812385;29;20094;-85
2022/07/30 13:27:40;;;;;;;0.30;0.15;;;;;;;;;;4808946;29;20106;-87
2022/07/30 13:30:07;;;;;;;0.20;0.10;;;;;;;;;;4809195;29;20488;-87
2022/07/30 13:32:33;;;;;;;0.20;0.10;;;;;;;;;;4807692;29;20053;-84
2022/07/30 13:35:02;;;;;;;0.20;0.10;;;;;;;;;;4803746;29;20050;-86
2022/07/30 13:37:28;;;;;;;0.20;0.10;;;;;;;;;;4800801;29;20041;-87
2022/07/30 13:39:54;;;;;;;0.20;0.10;;;;;;;;;;4786296;29;20536;-85
2022/07/30 13:42:24;;;;;;;0.20;0.00;;;;;;;;;;4821914;23;20064;-83
2022/07/30 13:45:22;;;;;;;0.20;0.10;;;;;;;;;;4817662;29;20049;-84
2022/07/30 13:48:41;;;;;;;;;;;;;;;;;;;;;
2022/07/30 13:55:18;;;;;;;0.20;0.10;;;;;;;;;;4818464;29;20050;-84
2022/07/30 13:57:44;;;;;;;0.20;0.10;;;;;;;;;;4818420;23;20049;-87
2022/07/30 14:00:11;;;;;;;0.20;0.10;;;;;;;;;;4818458;29;20056;-84
2022/07/30 14:02:40;;;;;;;0.20;0.10;;;;;;;;;;4850661;29;20045;-86
2022/07/30 14:05:12;;;;;;;0.20;0.10;;;;;;;;;;4804376;29;20800;-86
2022/07/30 14:07:41;;;;;;;0.20;0.10;;;;;;;;;;4811193;29;20057;-86
2022/07/30 14:10:08;;;;;;;0.20;0.10;;;;;;;;;;4824191;29;20996;-87
2022/07/30 14:12:34;;;;;;;0.20;0.10;;;;;;;;;;4818875;29;20048;-87
2022/07/30 14:15:03;;;;;;;0.20;0.10;;;;;;;;;;4819730;29;20716;-87
2022/07/30 14:17:29;;;;;;;0.20;0.10;;;;;;;;;;4785494;29;20034;-87
2022/07/30 14:19:59;;;;;;;0.20;0.10;;;;;;;;;;4808764;29;20113;-87
2022/07/30 14:22:33;;;;;;;0.20;0.10;;;;;;;;;;4810183;29;20563;-87
2022/07/30 14:24:59;;;;;;;0.20;0.10;;;;;;;;;;4803352;29;20045;-88
2022/07/30 14:27:28;;;;;;;0.20;0.10;;;;;;;;;;4793588;29;20073;-88
2022/07/30 14:29:55;;;;;;;0.20;0.10;;;;;;;;;;4813500;29;20081;-85
2022/07/30 14:32:32;;;;;;;0.20;0.10;;;;;;;;;;4809391;29;20163;-88
2022/07/30 14:34:58;;;;;;;0.20;0.10;;;;;;;;;;4808872;29;20413;-85
2022/07/30 14:37:27;;;;;;;0.20;0.10;;;;;;;;;;4809300;29;20874;-87
2022/07/30 14:39:54;;;;;;;0.20;0.10;;;;;;;;;;4782857;29;20140;-87
2022/07/30 14:42:20;;;;;;;0.20;0.10;;;;;;;;;;4811308;29;20053;-89
2022/07/30 14:44:48;;;;;;;0.20;0.10;;;;;;;;;;4812262;29;20647;-88
2022/07/30 14:47:17;;;;;;;0.20;0.10;;;;;;;;;;4812537;29;20049;-89
2022/07/30 14:50:03;;;;;;;0.20;0.10;;;;;;;;;;4812454;29;20487;-88
2022/07/30 14:52:37;;;;;;;0.20;0.10;;;;;;;;;;4817385;29;20049;-86
2022/07/30 14:55:16;;;;;;;0.20;0.10;;;;;;;;;;4828310;29;20046;-87
2022/07/30 14:57:51;;;;;;;0.20;0.10;;;;;;;;;;4808503;29;20101;-88
2022/07/30 15:00:18;;;;;;;0.20;0.10;;;;;;;;;;4811777;29;20109;-88
2022/07/30 15:03:05;;;;;;;0.20;0.10;;;;;;;;;;4807874;29;20081;-87
2022/07/30 15:05:34;;;;;;;0.20;0.10;;;;;;;;;;4812286;29;20501;-89
2022/07/30 15:08:00;;;;;;;0.20;0.10;;;;;;;;;;4807800;29;20074;-88
2022/07/30 15:10:29;;;;;;;0.20;0.10;;;;;;;;;;4784167;29;20144;-89
2022/07/30 15:12:58;;;;;;;0.20;0.10;;;;;;;;;;4808104;29;20170;-88
2022/07/30 15:15:24;;;;;;;0.20;0.10;;;;;;;;;;4810468;29;20077;-85
2022/07/30 15:17:59;;;;;;;0.20;0.10;;;;;;;;;;4816173;29;20062;-87
2022/07/30 15:20:30;;;;;;;0.20;0.10;;;;;;;;;;4809949;29;20535;-88
2022/07/30 15:23:02;;;;;;;0.20;0.10;;;;;;;;;;4813127;29;20379;-90
2022/07/30 15:25:31;;;;;;;;;;;;;;;;;;4817737;29;20072;-90
2022/07/30 15:28:03;;;;;;;0.20;0.10;;;;;;;;;;4810473;29;19928;-88
2022/07/30 15:30:29;;;;;;;0.20;0.10;;;;;;;;;;4808929;29;20042;-89
2022/07/30 15:33:01;;;;;;;0.20;0.10;;;;;;;;;;4808285;29;20509;-91
2022/07/30 15:35:27;;;;;;;0.20;0.10;;;;;;;;;;4806099;29;20513;-86
2022/07/30 15:37:56;;;;;;;0.20;0.10;;;;;;;;;;4809583;29;20501;-89
2022/07/30 15:40:23;;;;;;;0.20;0.10;;;;;;;;;;4806109;29;20050;-90
2022/07/30 15:42:52;;;;;;;0.20;0.10;;;;;;;;;;4810355;29;20179;-87
2022/07/30 15:45:19;;;;;;;0.20;0.10;;;;;;;;;;4809082;29;20065;-87
2022/07/30 15:47:45;;;;;;;0.20;0.10;;;;;;;;;;4811521;29;20046;-87
2022/07/30 15:50:15;;;;;;;0.20;0.10;;;;;;;;;;4811150;29;20564;-87
2022/07/30 15:52:53;;;;;;;0.20;0.10;;;;;;;;;;4806377;29;20054;-89
2022/07/30 15:55:22;;;;;;;0.20;0.10;;;;;;;;;;4809575;29;20342;-86
2022/07/30 15:58:12;;;;;;;0.20;0.10;;;;;;;;;;4811998;29;20069;-90
2022/07/30 16:00:38;;;;;;;0.20;0.10;;;;;;;;;;4813213;29;20074;-87
2022/07/30 16:03:07;;;;;;;0.20;0.10;;;;;;;;;;4811594;29;20128;-86
2022/07/30 16:05:33;;;;;;;0.20;0.10;;;;;;;;;;4814182;29;20057;-88
2022/07/30 16:07:59;;;;;;;0.20;0.10;;;;;;;;;;4812969;29;20066;-88
2022/07/30 16:10:25;;;;;;;0.20;0.10;;;;;;;;;;4810643;29;20046;-87
2022/07/30 16:12:54;;;;;;;0.20;0.10;;;;;;;;;;4812087;29;20042;-87
2022/07/30 16:15:20;;;;;;;0.20;0.10;;;;;;;;;;4814814;29;20125;-87
2022/07/30 16:17:46;;;;;;;0.20;0.10;;;;;;;;;;4813956;29;20046;-86
2022/07/30 16:20:15;;;;;;;0.20;0.10;;;;;;;;;;4830918;29;20041;-90
2022/07/30 16:22:48;;;;;;;0.20;0.10;;;;;;;;;;4816958;29;20156;-88
2022/07/30 16:25:16;;;;;;;0.20;0.10;;;;;;;;;;4815808;29;20164;-89
2022/07/30 16:27:51;;;;;;;0.20;0.10;;;;;;;;;;4820440;29;20045;-88
2022/07/30 16:30:20;;;;;;;0.20;0.10;;;;;;;;;;4790053;29;20091;-88
2022/07/30 16:32:54;;;;;;;0.20;0.10;;;;;;;;;;4811399;29;20037;-83
2022/07/30 16:35:21;;;;;;;0.20;0.10;;;;;;;;;;4820469;29;20045;-88
2022/07/30 16:37:47;;;;;;;0.20;0.10;;;;;;;;;;4803615;29;20053;-86
2022/07/30 16:40:21;;;;;;;0.20;0.10;;;;;;;;;;4805454;29;20042;-90
2022/07/30 16:42:47;;;;;;;0.20;0.10;;;;;;;;;;4816923;29;20045;-87
2022/07/30 16:45:13;;;;;;;0.20;0.10;;;;;;;;;;4824190;29;20046;-88
2022/07/30 16:47:39;;;;;;;0.20;0.10;;;;;;;;;;4817726;29;20564;-89
2022/07/30 16:50:11;;;;;;;0.20;0.10;;;;;;;;;;4802253;29;20052;-89
2022/07/30 16:52:37;;;;;;;0.20;0.10;;;;;;;;;;4803013;29;20450;-89
2022/07/30 16:55:04;;;;;;;0.20;0.10;;;;;;;;;;4789497;29;20045;-88
2022/07/30 16:57:30;;;;;;;0.20;0.10;;;;;;;;;;4810839;29;20555;-89
2022/07/30 16:59:56;;;;;;;0.20;0.10;;;;;;;;;;4819682;29;21158;-89
2022/07/30 17:02:22;;;;;;;0.20;0.10;;;;;;;;;;4813243;29;20046;-85
2022/07/30 17:04:48;;;;;;;0.20;0.10;;;;;;;;;;4807669;29;20684;-88